createdAt,value
2022-11-09T00:01:03.165Z,2.97
2022-11-09T00:03:30.896Z,2.53
2022-11-09T00:05:59.779Z,2.75
2022-11-09T00:08:27.828Z,2.40
2022-11-09T00:10:55.784Z,3.08
2022-11-09T00:13:23.615Z,2.90
2022-11-09T00:15:51.447Z,2.28
2022-11-09T00:18:19.119Z,2.20
2022-11-09T00:20:48.306Z,2.03
2022-11-09T00:23:17.459Z,2.10
2022-11-09T00:25:45.429Z,1.90
2022-11-09T00:28:13.773Z,1.57
2022-11-09T00:30:42.475Z,1.60
2022-11-09T00:33:12.291Z,1.48
2022-11-09T00:35:40.068Z,1.40
2022-11-09T00:38:07.728Z,1.23
2022-11-09T00:40:35.587Z,1.20
2022-11-09T00:43:03.267Z,0.98
2022-11-09T00:45:30.705Z,0.98
2022-11-09T00:47:58.231Z,0.90
2022-11-09T00:50:25.643Z,1.40
2022-11-09T00:52:53.385Z,1.20
2022-11-09T00:55:21.254Z,1.83
2022-11-09T00:57:50.174Z,1.17
2022-11-09T01:00:22.295Z,1.05
2022-11-09T01:02:50.290Z,0.82
2022-11-09T01:05:18.914Z,0.57
2022-11-09T01:07:46.814Z,0.90
2022-11-09T01:10:14.296Z,0.73
2022-11-09T01:12:41.834Z,0.65
2022-11-09T01:15:09.956Z,0.80
2022-11-09T01:17:37.456Z,0.63
2022-11-09T01:20:05.565Z,0.65
2022-11-09T01:22:33.184Z,0.57
2022-11-09T01:25:00.638Z,0.65
2022-11-09T01:27:28.470Z,0.70
2022-11-09T01:29:55.966Z,0.60
2022-11-09T01:32:23.837Z,0.60
2022-11-09T01:34:51.677Z,0.70
2022-11-09T01:37:20.052Z,0.75
2022-11-09T01:39:47.842Z,0.50
2022-11-09T01:42:21.525Z,0.63
2022-11-09T01:44:49.064Z,0.50
2022-11-09T01:47:25.177Z,0.60
2022-11-09T01:50:00.201Z,0.70
2022-11-09T01:52:35.215Z,0.70
2022-11-09T01:55:24.322Z,0.70
2022-11-09T01:58:06.797Z,0.85
2022-11-09T02:00:37.532Z,0.90
2022-11-09T02:03:11.308Z,0.90
2022-11-09T02:05:41.668Z,0.70
2022-11-09T02:08:12.724Z,1.17
2022-11-09T02:11:06.389Z,1.40
2022-11-09T02:13:34.930Z,1.40
2022-11-09T02:16:02.749Z,1.38
2022-11-09T02:18:32.867Z,1.60
2022-11-09T02:21:00.616Z,2.00
2022-11-09T02:23:29.377Z,1.85
2022-11-09T02:26:05.244Z,2.13
2022-11-09T02:28:32.812Z,2.70
2022-11-09T02:31:02.282Z,2.95
2022-11-09T02:33:30.123Z,2.88
2022-11-09T02:35:57.910Z,3.92
2022-11-09T02:38:25.370Z,4.32
2022-11-09T02:40:53.562Z,4.20
2022-11-09T02:43:21.362Z,5.22
2022-11-09T02:45:49.158Z,5.03
2022-11-09T02:48:17.030Z,5.45
2022-11-09T02:50:46.733Z,5.60
2022-11-09T02:53:14.244Z,6.32
2022-11-09T02:55:41.760Z,6.05
2022-11-09T02:58:09.176Z,7.00
2022-11-09T03:00:36.743Z,7.63
2022-11-09T03:03:05.001Z,7.40
2022-11-09T03:05:32.576Z,4.95
2022-11-09T03:08:02.546Z,8.55
2022-11-09T03:10:30.438Z,7.10
2022-11-09T03:12:58.253Z,7.78
2022-11-09T03:15:25.729Z,7.75
2022-11-09T03:17:53.502Z,8.32
2022-11-09T03:20:21.051Z,7.32
2022-11-09T03:22:48.702Z,8.77
2022-11-09T03:25:16.204Z,8.93
2022-11-09T03:27:43.752Z,9.57
2022-11-09T03:30:11.747Z,9.90
2022-11-09T03:32:39.529Z,10.75
2022-11-09T03:35:07.760Z,11.15
2022-11-09T03:37:35.364Z,11.15
2022-11-09T03:40:02.971Z,11.07
2022-11-09T03:42:30.567Z,11.35
2022-11-09T03:44:58.022Z,11.70
2022-11-09T03:47:25.450Z,11.82
2022-11-09T03:49:56.226Z,11.43
2022-11-09T03:52:24.000Z,11.65
2022-11-09T03:54:51.488Z,11.98
2022-11-09T03:57:19.231Z,11.80
2022-11-09T03:59:47.429Z,12.85
2022-11-09T04:02:14.849Z,13.88
2022-11-09T04:04:42.319Z,13.65
2022-11-09T04:07:11.277Z,13.65
2022-11-09T04:12:06.376Z,14.00
2022-11-09T04:14:34.128Z,14.98
2022-11-09T04:17:01.696Z,15.88
2022-11-09T04:19:29.389Z,13.93
2022-11-09T04:21:57.265Z,14.93
2022-11-09T04:24:24.735Z,14.13
2022-11-09T04:26:52.199Z,14.35
2022-11-09T04:29:20.172Z,14.80
2022-11-09T04:31:50.984Z,14.75
2022-11-09T04:34:18.779Z,14.43
2022-11-09T04:36:46.261Z,15.80
2022-11-09T04:39:14.125Z,13.90
2022-11-09T04:41:41.577Z,13.98
2022-11-09T04:44:13.653Z,12.57
2022-11-09T04:46:41.190Z,12.65
2022-11-09T04:49:08.762Z,11.63
2022-11-09T04:51:36.376Z,11.63
2022-11-09T04:54:03.981Z,11.73
2022-11-09T04:56:31.500Z,11.50
2022-11-09T04:58:59.043Z,10.98
2022-11-09T05:01:26.524Z,11.57
2022-11-09T05:03:54.352Z,11.90
2022-11-09T05:06:34.218Z,12.02
2022-11-09T05:09:05.254Z,11.15
2022-11-09T05:11:34.159Z,10.30
2022-11-09T05:14:02.336Z,11.48
2022-11-09T05:16:30.913Z,9.48
2022-11-09T05:18:58.676Z,9.38
2022-11-09T05:21:26.254Z,9.20
2022-11-09T05:23:59.349Z,9.52
2022-11-09T05:26:35.603Z,9.93
2022-11-09T05:29:06.343Z,9.80
2022-11-09T05:31:34.283Z,9.57
2022-11-09T05:34:02.841Z,10.23
2022-11-09T05:36:31.049Z,9.82
2022-11-09T05:38:59.001Z,10.75
2022-11-09T05:41:27.201Z,10.40
2022-11-09T05:43:54.942Z,10.17
2022-11-09T05:46:22.453Z,10.40
2022-11-09T05:48:49.976Z,11.02
2022-11-09T05:51:17.420Z,10.85
2022-11-09T05:53:46.746Z,10.95
2022-11-09T05:56:15.312Z,10.27
2022-11-09T05:58:43.375Z,9.93
2022-11-09T06:01:16.487Z,10.10
2022-11-09T06:03:44.588Z,9.88
2022-11-09T06:06:14.078Z,7.37
2022-11-09T06:08:42.180Z,10.57
2022-11-09T06:11:11.769Z,10.07
2022-11-09T06:13:39.445Z,9.30
2022-11-09T06:16:07.228Z,9.48
2022-11-09T06:18:37.199Z,9.65
2022-11-09T06:21:05.930Z,9.88
2022-11-09T06:23:34.423Z,9.60
2022-11-09T06:26:07.297Z,7.38
2022-11-09T06:28:35.301Z,9.05
2022-11-09T06:31:04.888Z,9.10
2022-11-09T06:33:33.759Z,9.45
2022-11-09T06:36:01.869Z,9.63
2022-11-09T06:38:29.905Z,9.18
2022-11-09T06:40:59.009Z,8.40
2022-11-09T06:43:27.680Z,9.55
2022-11-09T06:45:55.852Z,9.88
2022-11-09T06:48:24.623Z,7.57
2022-11-09T06:50:52.160Z,9.20
2022-11-09T06:53:20.082Z,9.65
2022-11-09T06:55:50.942Z,9.23
2022-11-09T06:58:19.811Z,8.57
2022-11-09T07:00:47.438Z,8.57
2022-11-09T07:03:16.853Z,9.85
2022-11-09T07:05:45.245Z,9.50
2022-11-09T07:08:13.358Z,11.05
2022-11-09T07:10:41.187Z,9.80
2022-11-09T07:13:09.473Z,9.98
2022-11-09T07:15:38.045Z,7.97
2022-11-09T07:18:07.987Z,10.23
2022-11-09T07:20:35.496Z,10.52
2022-11-09T07:23:03.127Z,9.55
2022-11-09T07:25:32.181Z,11.40
2022-11-09T07:28:05.550Z,10.23
2022-11-09T07:30:33.483Z,10.45
2022-11-09T07:33:10.083Z,10.68
2022-11-09T07:35:38.137Z,10.85
2022-11-09T07:38:06.551Z,11.18
2022-11-09T07:40:34.722Z,10.00
2022-11-09T07:43:04.623Z,10.20
2022-11-09T07:45:34.715Z,11.13
2022-11-09T07:48:05.734Z,11.00
2022-11-09T07:50:34.733Z,10.65
2022-11-09T07:53:03.241Z,11.00
2022-11-09T07:55:31.324Z,9.45
2022-11-09T07:58:07.062Z,11.30
2022-11-09T08:00:36.803Z,11.35
2022-11-09T08:03:05.750Z,10.88
2022-11-09T08:05:34.252Z,11.60
2022-11-09T08:08:04.964Z,11.00
2022-11-09T08:10:33.644Z,11.95
2022-11-09T08:13:03.463Z,11.85
2022-11-09T08:15:31.279Z,10.80
2022-11-09T08:18:01.431Z,8.32
2022-11-09T08:20:30.737Z,11.00
2022-11-09T08:25:34.132Z,11.50
2022-11-09T08:28:03.518Z,11.13
2022-11-09T08:30:32.717Z,11.65
2022-11-09T08:33:02.344Z,11.25
2022-11-09T08:35:30.692Z,11.88
2022-11-09T08:38:02.841Z,8.35
2022-11-09T08:40:32.299Z,11.43
2022-11-09T08:43:05.526Z,10.95
2022-11-09T08:45:35.749Z,11.57
2022-11-09T08:48:04.683Z,10.93
2022-11-09T08:53:01.751Z,11.98
2022-11-09T08:55:29.643Z,11.98
2022-11-09T08:57:59.497Z,12.45
2022-11-09T09:00:27.862Z,11.95
2022-11-09T09:02:55.424Z,11.60
2022-11-09T09:05:23.247Z,11.95
2022-11-09T09:07:50.895Z,12.27
2022-11-09T09:10:18.598Z,12.50
2022-11-09T09:12:46.155Z,12.45
2022-11-09T09:15:13.592Z,13.13
2022-11-09T09:17:41.161Z,11.93
2022-11-09T09:20:09.237Z,12.32
2022-11-09T09:22:36.905Z,13.60
2022-11-09T09:25:04.942Z,13.00
2022-11-09T09:27:32.693Z,12.15
2022-11-09T09:30:00.336Z,13.20
2022-11-09T09:32:27.804Z,13.57
2022-11-09T09:34:55.267Z,13.27
2022-11-09T09:37:22.994Z,12.52
2022-11-09T09:39:51.085Z,13.05
2022-11-09T09:42:22.825Z,11.82
2022-11-09T09:44:57.717Z,12.13
2022-11-09T09:47:57.669Z,12.25
2022-11-09T09:50:30.545Z,13.23
2022-11-09T09:53:23.623Z,13.35
2022-11-09T09:56:00.798Z,13.95
2022-11-09T09:58:31.625Z,13.48
2022-11-09T10:01:21.219Z,13.90
2022-11-09T10:03:49.542Z,12.77
2022-11-09T10:06:38.148Z,11.20
2022-11-09T10:09:31.538Z,14.00
2022-11-09T10:12:36.558Z,13.27
2022-11-09T10:15:25.802Z,13.82
2022-11-09T10:18:13.870Z,12.30
2022-11-09T10:20:46.189Z,12.75
2022-11-09T10:23:44.208Z,13.07
2022-11-09T10:26:21.652Z,13.55
2022-11-09T10:29:24.467Z,12.88
2022-11-09T10:32:14.513Z,12.98
2022-11-09T10:34:55.949Z,12.73
2022-11-09T10:37:33.529Z,13.98
2022-11-09T10:40:06.501Z,13.55
2022-11-09T10:42:34.563Z,13.90
2022-11-09T10:45:12.565Z,14.10
2022-11-09T10:47:50.836Z,13.70
2022-11-09T10:50:53.940Z,14.30
2022-11-09T10:53:24.283Z,14.93
2022-11-09T10:56:20.469Z,13.90
2022-11-09T10:58:51.807Z,14.05
2022-11-09T11:01:19.515Z,14.32
2022-11-09T11:03:51.742Z,14.70
2022-11-09T11:06:22.281Z,14.32
2022-11-09T11:09:11.196Z,15.20
2022-11-09T11:11:39.934Z,15.25
2022-11-09T11:14:23.630Z,14.43
2022-11-09T11:16:53.281Z,15.32
2022-11-09T11:19:37.087Z,14.65
2022-11-09T11:22:19.423Z,15.15
2022-11-09T11:24:54.809Z,15.05
2022-11-09T11:27:28.956Z,14.45
2022-11-09T11:30:19.526Z,14.23
2022-11-09T11:32:50.507Z,14.02
2022-11-09T11:35:41.338Z,14.73
2022-11-09T11:38:32.680Z,15.35
2022-11-09T11:41:03.138Z,14.25
2022-11-09T11:43:52.902Z,16.90
2022-11-09T11:46:39.780Z,40.63
2022-11-09T11:49:38.286Z,15.98
2022-11-09T11:52:23.408Z,14.25
2022-11-09T11:55:31.547Z,14.02
2022-11-09T11:58:12.293Z,14.98
2022-11-09T12:01:18.788Z,14.45
2022-11-09T12:04:14.113Z,14.00
2022-11-09T12:06:47.998Z,14.88
2022-11-09T12:09:30.691Z,14.48
2022-11-09T12:12:07.646Z,14.80
2022-11-09T12:14:53.548Z,14.57
2022-11-09T12:17:43.220Z,13.70
2022-11-09T12:20:34.316Z,15.10
2022-11-09T12:23:32.911Z,13.00
2022-11-09T12:26:37.758Z,14.63
2022-11-09T12:29:46.728Z,13.73
2022-11-09T12:32:40.086Z,13.45
2022-11-09T12:35:30.081Z,12.82
2022-11-09T12:38:21.642Z,12.48
2022-11-09T12:40:58.503Z,13.70
2022-11-09T12:43:29.972Z,12.65
2022-11-09T12:45:59.444Z,13.32
2022-11-09T12:48:33.947Z,11.82
2022-11-09T12:51:04.064Z,12.05
2022-11-09T12:53:38.933Z,12.25
2022-11-09T12:56:44.533Z,11.80
2022-11-09T12:59:27.604Z,11.73
2022-11-09T13:01:57.807Z,11.52
2022-11-09T13:04:26.579Z,11.30
2022-11-09T13:07:03.440Z,9.25
2022-11-09T13:09:44.122Z,11.35
2022-11-09T13:12:29.069Z,12.25
2022-11-09T13:14:56.850Z,12.00
2022-11-09T13:17:24.457Z,11.60
2022-11-09T13:19:56.710Z,10.65
2022-11-09T13:22:27.542Z,10.05
2022-11-09T13:25:02.777Z,10.48
2022-11-09T13:27:33.428Z,11.70
2022-11-09T13:30:01.766Z,10.90
2022-11-09T13:32:33.390Z,10.55
2022-11-09T13:35:03.738Z,10.25
2022-11-09T13:37:41.457Z,10.07
2022-11-09T13:40:30.787Z,9.95
2022-11-09T13:43:05.193Z,10.20
2022-11-09T13:45:37.589Z,9.93
2022-11-09T13:48:41.094Z,8.88
2022-11-09T13:51:11.416Z,9.73
2022-11-09T13:53:39.178Z,9.57
2022-11-09T13:56:27.463Z,8.80
2022-11-09T13:59:28.344Z,9.93
2022-11-09T14:01:58.371Z,9.25
2022-11-09T14:04:38.200Z,9.50
2022-11-09T14:07:07.164Z,9.30
2022-11-09T14:10:12.178Z,9.38
2022-11-09T14:13:01.357Z,8.43
2022-11-09T14:16:02.083Z,9.27
2022-11-09T14:18:38.994Z,9.25
2022-11-09T14:22:05.197Z,10.38
2022-11-09T14:24:33.663Z,10.25
2022-11-09T14:27:10.403Z,9.48
2022-11-09T14:29:51.535Z,10.15
2022-11-09T14:32:37.316Z,10.10
2022-11-09T14:35:24.947Z,10.25
2022-11-09T14:37:55.473Z,10.52
2022-11-09T14:40:31.353Z,10.43
2022-11-09T14:43:29.376Z,9.88
2022-11-09T14:46:00.208Z,9.75
2022-11-09T14:48:29.947Z,9.10
2022-11-09T14:51:03.079Z,9.80
2022-11-09T14:53:42.489Z,9.77
2022-11-09T14:56:12.692Z,9.20
2022-11-09T14:58:43.348Z,9.52
2022-11-09T15:01:20.188Z,10.00
2022-11-09T15:04:22.986Z,10.15
2022-11-09T15:06:53.030Z,9.98
2022-11-09T15:09:31.388Z,10.80
2022-11-09T15:11:59.291Z,10.70
2022-11-09T15:14:30.584Z,9.80
2022-11-09T15:17:13.874Z,10.38
2022-11-09T15:19:52.824Z,9.38
2022-11-09T15:22:57.645Z,9.68
2022-11-09T15:25:33.205Z,9.82
2022-11-09T15:28:10.570Z,8.90
2022-11-09T15:30:46.222Z,9.20
2022-11-09T15:33:35.533Z,9.25
2022-11-09T15:36:07.527Z,9.02
2022-11-09T15:38:42.831Z,7.90
2022-11-09T15:41:17.150Z,8.32
2022-11-09T15:43:44.994Z,8.75
2022-11-09T15:46:20.729Z,8.73
2022-11-09T15:48:48.556Z,8.57
2022-11-09T15:51:16.956Z,6.70
2022-11-09T15:53:44.667Z,8.55
2022-11-09T15:56:21.747Z,7.93
2022-11-09T15:58:52.507Z,8.75
2022-11-09T16:01:20.643Z,8.10
2022-11-09T16:03:48.531Z,8.45
2022-11-09T16:06:19.146Z,9.00
2022-11-09T16:08:48.646Z,8.05
2022-11-09T16:11:16.778Z,8.63
2022-11-09T16:13:44.599Z,9.50
2022-11-09T16:16:14.413Z,8.00
2022-11-09T16:18:42.233Z,8.50
2022-11-09T16:21:15.078Z,8.70
2022-11-09T16:23:43.125Z,8.02
2022-11-09T16:26:19.436Z,8.43
2022-11-09T16:28:47.119Z,8.98
2022-11-09T16:31:15.140Z,9.67
2022-11-09T16:33:43.253Z,8.70
2022-11-09T16:36:24.376Z,8.52
2022-11-09T16:38:54.172Z,9.00
2022-11-09T16:41:22.804Z,8.50
2022-11-09T16:43:55.371Z,8.68
2022-11-09T16:46:28.972Z,8.27
2022-11-09T16:49:00.231Z,8.60
2022-11-09T16:51:27.973Z,9.13
2022-11-09T16:53:55.746Z,8.32
2022-11-09T16:56:23.623Z,7.63
2022-11-09T16:58:51.236Z,8.13
2022-11-09T17:01:23.273Z,8.10
2022-11-09T17:03:51.652Z,8.25
2022-11-09T17:06:19.444Z,7.65
2022-11-09T17:08:47.645Z,7.90
2022-11-09T17:11:15.864Z,8.43
2022-11-09T17:13:43.904Z,8.07
2022-11-09T17:16:13.608Z,6.85
2022-11-09T17:18:42.809Z,7.70
2022-11-09T17:21:12.317Z,7.40
2022-11-09T17:23:42.121Z,7.97
2022-11-09T17:26:11.001Z,6.25
2022-11-09T17:28:42.960Z,7.47
2022-11-09T17:31:14.304Z,6.85
2022-11-09T17:33:42.928Z,7.22
2022-11-09T17:36:11.865Z,7.53
2022-11-09T17:41:18.984Z,7.03
2022-11-09T17:43:47.276Z,8.00
2022-11-09T17:46:18.159Z,5.78
2022-11-09T17:48:49.365Z,7.88
2022-11-09T17:51:19.910Z,8.23
2022-11-09T17:53:47.887Z,9.23
2022-11-09T17:56:15.364Z,7.97
2022-11-09T17:58:45.684Z,7.60
2022-11-09T18:01:16.387Z,6.65
2022-11-09T18:03:44.238Z,7.70
2022-11-09T18:06:20.356Z,8.05
2022-11-09T18:09:09.539Z,7.47
2022-11-09T18:11:36.867Z,7.60
2022-11-09T18:14:04.588Z,7.95
2022-11-09T18:16:32.352Z,7.25
2022-11-09T18:19:01.896Z,6.93
2022-11-09T18:21:29.747Z,7.25
2022-11-09T18:23:57.607Z,6.50
2022-11-09T18:26:25.749Z,7.35
2022-11-09T18:28:56.638Z,7.33
2022-11-09T18:31:24.799Z,7.85
2022-11-09T18:33:53.333Z,5.40
2022-11-09T18:36:21.891Z,7.78
2022-11-09T18:38:52.602Z,7.63
2022-11-09T18:41:22.723Z,6.90
2022-11-09T18:43:51.670Z,8.23
2022-11-09T18:46:20.659Z,8.88
2022-11-09T18:51:21.367Z,8.45
2022-11-09T18:53:49.887Z,8.70
2022-11-09T18:56:24.061Z,7.95
2022-11-09T18:58:55.149Z,8.25
2022-11-09T19:01:24.639Z,8.60
2022-11-09T19:03:59.051Z,8.30
2022-11-09T19:06:28.187Z,8.25
2022-11-09T19:09:14.483Z,7.25
2022-11-09T19:11:42.300Z,7.95
2022-11-09T19:14:10.891Z,8.68
2022-11-09T19:16:38.999Z,9.23
2022-11-09T19:19:13.051Z,8.70
2022-11-09T19:21:52.647Z,8.88
2022-11-09T19:24:23.934Z,8.52
2022-11-09T19:26:53.706Z,9.15
2022-11-09T19:29:21.635Z,9.02
2022-11-09T19:31:49.514Z,8.60
2022-11-09T19:34:20.223Z,6.57
2022-11-09T19:36:48.439Z,8.93
2022-11-09T19:39:17.698Z,8.93
2022-11-09T19:41:45.684Z,9.63
2022-11-09T19:44:15.044Z,9.60
2022-11-09T19:46:42.526Z,9.40
2022-11-09T19:49:10.500Z,8.65
2022-11-09T19:51:39.532Z,8.98
2022-11-09T19:54:07.796Z,8.98
2022-11-09T19:56:37.078Z,9.75
2022-11-09T19:59:05.626Z,8.68
2022-11-09T20:01:33.505Z,9.25
2022-11-09T20:04:06.394Z,8.35
2022-11-09T20:06:38.259Z,9.02
2022-11-09T20:09:06.520Z,9.48
2022-11-09T20:11:53.291Z,8.43
2022-11-09T20:14:21.301Z,7.93
2022-11-09T20:16:49.404Z,7.97
2022-11-09T20:19:17.551Z,8.13
2022-11-09T20:21:45.253Z,8.45
2022-11-09T20:24:13.092Z,8.88
2022-11-09T20:26:43.467Z,9.05
2022-11-09T20:29:11.664Z,8.60
2022-11-09T20:31:40.035Z,8.07
2022-11-09T20:34:08.161Z,8.27
2022-11-09T20:36:35.952Z,9.13
2022-11-09T20:39:04.559Z,9.27
2022-11-09T20:41:33.368Z,8.90
2022-11-09T20:44:01.059Z,8.95
2022-11-09T20:46:34.336Z,9.60
2022-11-09T20:49:04.680Z,8.75
2022-11-09T20:51:32.840Z,9.32
2022-11-09T20:54:06.642Z,9.60
2022-11-09T20:56:36.651Z,9.40
2022-11-09T20:59:04.359Z,9.00
2022-11-09T21:01:32.517Z,7.90
2022-11-09T21:04:00.491Z,9.65
2022-11-09T21:06:28.246Z,9.57
2022-11-09T21:08:57.133Z,9.63
2022-11-09T21:11:28.715Z,8.95
2022-11-09T21:13:56.343Z,9.75
2022-11-09T21:16:24.254Z,9.27
2022-11-09T21:18:52.002Z,9.70
2022-11-09T21:21:24.546Z,8.75
2022-11-09T21:24:10.998Z,8.00
2022-11-09T21:26:57.513Z,8.95
2022-11-09T21:29:44.144Z,8.80
2022-11-09T21:32:12.256Z,9.32
2022-11-09T21:34:39.914Z,9.38
2022-11-09T21:37:07.807Z,9.40
2022-11-09T21:39:35.570Z,9.25
2022-11-09T21:42:04.721Z,9.00
2022-11-09T21:44:33.846Z,9.40
2022-11-09T21:49:29.957Z,7.10
2022-11-09T21:51:58.053Z,8.05
2022-11-09T21:54:26.612Z,8.30
2022-11-09T21:56:55.050Z,6.22
2022-11-09T21:59:23.372Z,7.25
2022-11-09T22:01:52.163Z,7.67
2022-11-09T22:04:20.000Z,7.72
2022-11-09T22:06:47.525Z,6.85
2022-11-09T22:09:17.855Z,6.78
2022-11-09T22:12:04.038Z,6.30
2022-11-09T22:14:50.407Z,6.05
2022-11-09T22:17:17.903Z,5.97
2022-11-09T22:20:04.005Z,6.20
2022-11-09T22:22:33.607Z,5.95
2022-11-09T22:25:01.316Z,5.68
2022-11-09T22:27:32.604Z,5.38
2022-11-09T22:30:00.698Z,5.10
2022-11-09T22:32:28.594Z,5.20
2022-11-09T22:34:56.039Z,5.00
2022-11-09T22:37:23.719Z,4.93
2022-11-09T22:39:51.320Z,4.55
2022-11-09T22:42:19.131Z,4.65
2022-11-09T22:44:46.911Z,4.68
2022-11-09T22:47:14.452Z,4.57
2022-11-09T22:49:42.216Z,4.10
2022-11-09T22:52:10.406Z,4.32
2022-11-09T22:54:38.045Z,3.72
2022-11-09T22:57:05.727Z,4.00
2022-11-09T22:59:33.291Z,4.55
2022-11-09T23:02:00.777Z,4.45
2022-11-09T23:04:28.574Z,4.18
2022-11-09T23:06:56.377Z,4.00
2022-11-09T23:09:23.984Z,3.78
2022-11-09T23:11:51.849Z,4.20
2022-11-09T23:14:39.476Z,4.05
2022-11-09T23:17:26.939Z,4.57
2022-11-09T23:19:54.869Z,4.00
2022-11-09T23:22:22.445Z,4.10
2022-11-09T23:25:08.403Z,4.68
2022-11-09T23:27:35.948Z,4.25
2022-11-09T23:30:04.340Z,4.63
2022-11-09T23:32:32.017Z,3.25
2022-11-09T23:34:59.760Z,3.72
2022-11-09T23:37:27.516Z,3.80
2022-11-09T23:39:55.278Z,4.20
2022-11-09T23:42:23.069Z,4.57
2022-11-09T23:44:50.742Z,4.45
2022-11-09T23:47:18.227Z,4.65
2022-11-09T23:49:45.885Z,4.45
2022-11-09T23:52:13.741Z,4.75
2022-11-09T23:54:41.503Z,5.13
2022-11-09T23:57:09.304Z,5.03
2022-11-09T23:59:37.208Z,4.80
